Impacts TAF Board
For situational awareness. Not to be used for flight planning purposes.
IDs:

KSAV - Savannah Intl, GA, US

Issued at 2320 UTC 04 Jul 2022
Updated at 0100 UTC 05 Jul 2022
Potential Impact None Slight Moderate High
Time<<05/13Z 05/14Z 05/15Z 05/16Z 05/17Z 05/18Z 05/19Z 05/20Z 05/21Z 05/22Z 05/23Z 06/00Z 06/01Z>>
Type PRVL PRVL PRVL PRVL PRVL PRVL PRVL PRVL PRVL PRVL PRVL
VIS >6 >6 >6 >6 >6 >6 >6 >6 >6 >6 >6
CIG 150 -- -- -- -- -- 200 200 200 200 200
Cover BKN SCT SCT SCT SCT SCT BKN BKN BKN BKN BKN
FltCat VFR VFR VFR VFR VFR VFR VFR VFR VFR VFR VFR
WX -- -- -- -- -- -- -- -- -- -- --
WDir VRB 180 180 180 180 180 150 150 150 150 150
WSpd 3 5 5 5 5 5 10 10 10 10 10
WGst -- -- -- -- -- -- -- -- -- -- --
WSHgt -- -- -- -- -- -- -- -- -- -- --
WSDir -- -- -- -- -- -- -- -- -- -- --
WSSpd -- -- -- -- -- -- -- -- -- -- --
R01/19
XWnd VRB 0 0 0 0 0 -5 -5 -5 -5 -5 0 0
R10/28
XWnd VRB -5 -5 -5 -5 -5 -9 -9 -9 -9 -9 0 0
Raw TAF
KSAV 042320Z 0500/0524 16005KT P6SM FEW040 SCT060 OVC100
  FM050400 VRB03KT P6SM FEW030 BKN150
  FM051400 18005KT P6SM SCT030
  FM051900 15010KT P6SM SCT040 BKN200


METAR Board
Radar Display
Forecast Discussion
For situational awareness. Not to be used for flight planning purposes.